sensor_id;sensor_type;location;lat;lon;timestamp;pressure;altitude;pressure_sealevel;temperature;humidity
53522;BME280;39398;48.382;9.802;2023-03-01T00:01:47;94296.59;;;-2.10;100.00
53522;BME280;39398;48.382;9.802;2023-03-01T00:06:48;94297.50;;;-1.98;100.00
53522;BME280;39398;48.382;9.802;2023-03-01T00:11:51;94285.72;;;-2.02;100.00
53522;BME280;39398;48.382;9.802;2023-03-01T00:16:53;94282.31;;;-2.03;100.00
53522;BME280;39398;48.382;9.802;2023-03-01T00:21:55;94276.91;;;-2.00;100.00
53522;BME280;39398;48.382;9.802;2023-03-01T00:26:58;94286.44;;;-1.64;100.00
53522;BME280;39398;48.382;9.802;2023-03-01T00:31:59;94278.09;;;-1.80;100.00
53522;BME280;39398;48.382;9.802;2023-03-01T00:37:01;94269.38;;;-1.79;100.00
53522;BME280;39398;48.382;9.802;2023-03-01T00:42:04;94258.50;;;-2.08;100.00
53522;BME280;39398;48.382;9.802;2023-03-01T00:47:05;94263.59;;;-2.06;100.00
53522;BME280;39398;48.382;9.802;2023-03-01T00:52:07;94261.41;;;-2.00;100.00
53522;BME280;39398;48.382;9.802;2023-03-01T00:57:10;94243.28;;;-2.00;100.00
53522;BME280;39398;48.382;9.802;2023-03-01T01:02:11;94240.88;;;-1.90;100.00
53522;BME280;39398;48.382;9.802;2023-03-01T01:07:14;94231.41;;;-1.78;100.00
53522;BME280;39398;48.382;9.802;2023-03-01T01:12:17;94238.41;;;-2.04;100.00
53522;BME280;39398;48.382;9.802;2023-03-01T01:17:18;94227.69;;;-2.11;100.00
53522;BME280;39398;48.382;9.802;2023-03-01T01:22:20;94227.84;;;-2.01;100.00
53522;BME280;39398;48.382;9.802;2023-03-01T01:27:23;94224.06;;;-2.08;100.00
53522;BME280;39398;48.382;9.802;2023-03-01T01:32:24;94213.91;;;-2.12;100.00
53522;BME280;39398;48.382;9.802;2023-03-01T01:37:27;94213.28;;;-2.02;100.00
53522;BME280;39398;48.382;9.802;2023-03-01T01:42:30;94207.19;;;-2.14;100.00
53522;BME280;39398;48.382;9.802;2023-03-01T01:47:32;94201.41;;;-2.18;100.00
53522;BME280;39398;48.382;9.802;2023-03-01T01:52:35;94208.00;;;-2.01;100.00
53522;BME280;39398;48.382;9.802;2023-03-01T01:57:42;94200.94;;;-1.99;100.00
53522;BME280;39398;48.382;9.802;2023-03-01T02:02:47;94196.31;;;-1.82;100.00
53522;BME280;39398;48.382;9.802;2023-03-01T02:07:51;94189.78;;;-1.99;100.00
53522;BME280;39398;48.382;9.802;2023-03-01T02:12:55;94187.19;;;-1.99;100.00
53522;BME280;39398;48.382;9.802;2023-03-01T02:17:57;94182.94;;;-1.76;100.00
53522;BME280;39398;48.382;9.802;2023-03-01T02:22:59;94182.50;;;-1.46;100.00
53522;BME280;39398;48.382;9.802;2023-03-01T02:28:08;94182.09;;;-1.88;100.00
53522;BME280;39398;48.382;9.802;2023-03-01T02:33:13;94175.69;;;-1.95;100.00
53522;BME280;39398;48.382;9.802;2023-03-01T02:38:14;94175.78;;;-1.73;100.00
53522;BME280;39398;48.382;9.802;2023-03-01T02:43:17;94169.03;;;-1.87;100.00
53522;BME280;39398;48.382;9.802;2023-03-01T02:48:22;94158.63;;;-1.98;100.00
53522;BME280;39398;48.382;9.802;2023-03-01T02:53:27;94159.94;;;-1.68;100.00
53522;BME280;39398;48.382;9.802;2023-03-01T02:58:31;94153.81;;;-2.15;100.00
53522;BME280;39398;48.382;9.802;2023-03-01T03:03:34;94155.84;;;-1.59;100.00
53522;BME280;39398;48.382;9.802;2023-03-01T03:08:35;94145.94;;;-1.66;100.00
53522;BME280;39398;48.382;9.802;2023-03-01T03:13:37;94145.50;;;-1.48;100.00
53522;BME280;39398;48.382;9.802;2023-03-01T03:18:40;94140.56;;;-1.87;100.00
53522;BME280;39398;48.382;9.802;2023-03-01T03:23:42;94132.28;;;-1.68;100.00
53522;BME280;39398;48.382;9.802;2023-03-01T03:28:43;94138.47;;;-1.46;100.00
53522;BME280;39398;48.382;9.802;2023-03-01T03:33:46;94132.59;;;-1.37;100.00
53522;BME280;39398;48.382;9.802;2023-03-01T03:38:47;94136.03;;;-1.25;100.00
53522;BME280;39398;48.382;9.802;2023-03-01T03:43:49;94136.47;;;-1.43;100.00
53522;BME280;39398;48.382;9.802;2023-03-01T03:48:52;94125.44;;;-1.22;100.00
53522;BME280;39398;48.382;9.802;2023-03-01T03:53:54;94135.19;;;-1.37;100.00
53522;BME280;39398;48.382;9.802;2023-03-01T03:58:55;94122.56;;;-1.42;100.00
53522;BME280;39398;48.382;9.802;2023-03-01T04:03:58;94122.25;;;-1.37;100.00
53522;BME280;39398;48.382;9.802;2023-03-01T04:09:00;94124.34;;;-1.42;100.00
53522;BME280;39398;48.382;9.802;2023-03-01T04:14:01;94117.53;;;-1.78;100.00
53522;BME280;39398;48.382;9.802;2023-03-01T04:19:04;94117.47;;;-1.54;100.00
53522;BME280;39398;48.382;9.802;2023-03-01T04:24:06;94115.03;;;-1.45;100.00
53522;BME280;39398;48.382;9.802;2023-03-01T04:29:08;94110.75;;;-1.57;100.00
53522;BME280;39398;48.382;9.802;2023-03-01T04:34:11;94106.72;;;-1.37;100.00
53522;BME280;39398;48.382;9.802;2023-03-01T04:39:12;94100.91;;;-1.41;100.00
53522;BME280;39398;48.382;9.802;2023-03-01T04:44:14;94101.03;;;-1.42;100.00
53522;BME280;39398;48.382;9.802;2023-03-01T04:49:17;94096.91;;;-1.56;100.00
53522;BME280;39398;48.382;9.802;2023-03-01T04:54:18;94097.84;;;-1.46;100.00
53522;BME280;39398;48.382;9.802;2023-03-01T04:59:20;94096.81;;;-1.43;100.00
53522;BME280;39398;48.382;9.802;2023-03-01T05:04:24;94098.16;;;-1.61;100.00
53522;BME280;39398;48.382;9.802;2023-03-01T05:09:25;94094.63;;;-1.72;100.00
53522;BME280;39398;48.382;9.802;2023-03-01T05:14:27;94086.81;;;-1.83;100.00
53522;BME280;39398;48.382;9.802;2023-03-01T05:19:30;94083.47;;;-1.61;100.00
53522;BME280;39398;48.382;9.802;2023-03-01T05:24:33;94076.44;;;-1.94;100.00
53522;BME280;39398;48.382;9.802;2023-03-01T05:29:34;94081.25;;;-2.25;100.00
53522;BME280;39398;48.382;9.802;2023-03-01T05:34:37;94080.13;;;-1.74;100.00
53522;BME280;39398;48.382;9.802;2023-03-01T05:39:39;94075.28;;;-1.90;100.00
53522;BME280;39398;48.382;9.802;2023-03-01T05:44:40;94079.25;;;-2.21;100.00
53522;BME280;39398;48.382;9.802;2023-03-01T05:49:43;94082.22;;;-2.15;100.00
53522;BME280;39398;48.382;9.802;2023-03-01T05:54:45;94077.50;;;-2.21;100.00
53522;BME280;39398;48.382;9.802;2023-03-01T05:59:47;94073.38;;;-2.47;100.00
53522;BME280;39398;48.382;9.802;2023-03-01T06:04:49;94075.19;;;-2.13;100.00
53522;BME280;39398;48.382;9.802;2023-03-01T06:09:51;94083.94;;;-2.50;100.00
53522;BME280;39398;48.382;9.802;2023-03-01T06:14:53;94093.66;;;-2.30;100.00
53522;BME280;39398;48.382;9.802;2023-03-01T06:19:56;94093.13;;;-2.22;100.00
53522;BME280;39398;48.382;9.802;2023-03-01T06:24:57;94096.25;;;-2.54;100.00
53522;BME280;39398;48.382;9.802;2023-03-01T06:29:59;94103.41;;;-2.34;100.00
53522;BME280;39398;48.382;9.802;2023-03-01T06:35:02;94103.47;;;-2.46;100.00
53522;BME280;39398;48.382;9.802;2023-03-01T06:40:05;94090.56;;;-2.59;100.00
53522;BME280;39398;48.382;9.802;2023-03-01T06:45:08;94091.19;;;-2.55;100.00
53522;BME280;39398;48.382;9.802;2023-03-01T06:50:12;94079.03;;;-2.18;100.00
53522;BME280;39398;48.382;9.802;2023-03-01T06:55:14;94090.50;;;-2.09;100.00
53522;BME280;39398;48.382;9.802;2023-03-01T07:00:17;94090.72;;;-2.13;100.00
53522;BME280;39398;48.382;9.802;2023-03-01T07:05:20;94086.84;;;-1.72;100.00
53522;BME280;39398;48.382;9.802;2023-03-01T07:10:22;94088.22;;;-2.14;100.00
53522;BME280;39398;48.382;9.802;2023-03-01T07:15:24;94083.03;;;-1.90;100.00
53522;BME280;39398;48.382;9.802;2023-03-01T07:20:27;94076.31;;;-1.93;100.00
53522;BME280;39398;48.382;9.802;2023-03-01T07:25:29;94063.59;;;-1.96;100.00
53522;BME280;39398;48.382;9.802;2023-03-01T07:30:31;94079.78;;;-1.70;100.00
53522;BME280;39398;48.382;9.802;2023-03-01T07:35:34;94072.19;;;-1.49;100.00
53522;BME280;39398;48.382;9.802;2023-03-01T07:40:35;94069.78;;;-1.74;100.00
53522;BME280;39398;48.382;9.802;2023-03-01T07:45:37;94073.53;;;-1.21;99.11
53522;BME280;39398;48.382;9.802;2023-03-01T07:50:40;94064.69;;;-1.18;97.09
53522;BME280;39398;48.382;9.802;2023-03-01T07:55:41;94064.34;;;-1.13;95.25
53522;BME280;39398;48.382;9.802;2023-03-01T08:00:43;94068.09;;;-1.18;96.30
53522;BME280;39398;48.382;9.802;2023-03-01T08:05:46;94073.97;;;-1.15;97.64
53522;BME280;39398;48.382;9.802;2023-03-01T08:10:47;94054.56;;;-1.10;96.00
53522;BME280;39398;48.382;9.802;2023-03-01T08:15:49;94060.19;;;-1.16;95.24
53522;BME280;39398;48.382;9.802;2023-03-01T08:20:52;94059.63;;;-1.08;95.48
53522;BME280;39398;48.382;9.802;2023-03-01T08:25:54;94068.81;;;-1.04;95.41
53522;BME280;39398;48.382;9.802;2023-03-01T08:30:55;94056.56;;;-0.80;94.55
53522;BME280;39398;48.382;9.802;2023-03-01T08:36:06;94051.00;;;-1.09;96.82
53522;BME280;39398;48.382;9.802;2023-03-01T08:41:07;94047.13;;;-1.03;95.36
53522;BME280;39398;48.382;9.802;2023-03-01T08:46:09;94047.19;;;-0.60;95.06
53522;BME280;39398;48.382;9.802;2023-03-01T08:51:13;94042.03;;;-0.71;96.84
53522;BME280;39398;48.382;9.802;2023-03-01T08:56:17;94041.94;;;-0.92;96.77
53522;BME280;39398;48.382;9.802;2023-03-01T09:01:19;94042.44;;;-0.98;99.09
53522;BME280;39398;48.382;9.802;2023-03-01T09:06:23;94041.69;;;-0.78;96.98
53522;BME280;39398;48.382;9.802;2023-03-01T09:11:25;94047.06;;;-0.58;99.15
53522;BME280;39398;48.382;9.802;2023-03-01T09:16:26;94033.31;;;-0.27;95.27
53522;BME280;39398;48.382;9.802;2023-03-01T09:21:29;94033.69;;;-0.31;94.23
53522;BME280;39398;48.382;9.802;2023-03-01T09:26:40;94028.50;;;-0.31;97.45
53522;BME280;39398;48.382;9.802;2023-03-01T09:31:42;94031.06;;;-0.63;98.47
53522;BME280;39398;48.382;9.802;2023-03-01T09:36:45;94019.66;;;-0.83;94.58
53522;BME280;39398;48.382;9.802;2023-03-01T09:41:56;94025.69;;;-0.39;94.40
53522;BME280;39398;48.382;9.802;2023-03-01T09:46:59;94023.06;;;-0.72;96.64
53522;BME280;39398;48.382;9.802;2023-03-01T09:52:11;94014.31;;;-0.71;95.23
53522;BME280;39398;48.382;9.802;2023-03-01T09:57:19;94012.28;;;-0.56;94.43
53522;BME280;39398;48.382;9.802;2023-03-01T10:02:26;94020.38;;;-0.38;95.03
53522;BME280;39398;48.382;9.802;2023-03-01T10:07:38;94020.84;;;-0.76;94.27
53522;BME280;39398;48.382;9.802;2023-03-01T10:12:44;94025.91;;;-0.42;94.93
53522;BME280;39398;48.382;9.802;2023-03-01T10:17:50;94011.56;;;-0.14;92.55
53522;BME280;39398;48.382;9.802;2023-03-01T10:22:54;94001.97;;;-0.03;92.96
53522;BME280;39398;48.382;9.802;2023-03-01T10:28:02;93997.13;;;0.35;90.00
53522;BME280;39398;48.382;9.802;2023-03-01T10:33:15;93985.69;;;-0.05;94.40
53522;BME280;39398;48.382;9.802;2023-03-01T10:38:20;93985.09;;;0.34;91.91
53522;BME280;39398;48.382;9.802;2023-03-01T10:43:22;93989.91;;;0.38;88.82
53522;BME280;39398;48.382;9.802;2023-03-01T10:48:26;93980.81;;;0.23;89.27
53522;BME280;39398;48.382;9.802;2023-03-01T10:53:32;93989.63;;;0.62;88.64
53522;BME280;39398;48.382;9.802;2023-03-01T10:58:35;93977.06;;;0.67;90.19
53522;BME280;39398;48.382;9.802;2023-03-01T11:03:38;93966.88;;;0.85;86.57
53522;BME280;39398;48.382;9.802;2023-03-01T11:08:43;93958.59;;;1.11;87.00
53522;BME280;39398;48.382;9.802;2023-03-01T11:13:51;93950.25;;;1.17;85.91
53522;BME280;39398;48.382;9.802;2023-03-01T11:18:59;93939.19;;;1.25;84.89
53522;BME280;39398;48.382;9.802;2023-03-01T11:24:04;93942.38;;;1.77;82.20
53522;BME280;39398;48.382;9.802;2023-03-01T11:29:17;93926.03;;;1.84;85.32
53522;BME280;39398;48.382;9.802;2023-03-01T11:34:32;93913.84;;;1.66;83.00
53522;BME280;39398;48.382;9.802;2023-03-01T11:39:42;93911.50;;;1.04;91.23
53522;BME280;39398;48.382;9.802;2023-03-01T11:44:48;93902.91;;;1.33;89.84
53522;BME280;39398;48.382;9.802;2023-03-01T11:50:07;93897.59;;;1.63;87.85
53522;BME280;39398;48.382;9.802;2023-03-01T11:55:23;93885.66;;;1.12;91.05
53522;BME280;39398;48.382;9.802;2023-03-01T12:00:38;93888.59;;;2.15;85.27
53522;BME280;39398;48.382;9.802;2023-03-01T12:06:04;93884.25;;;2.70;79.93
53522;BME280;39398;48.382;9.802;2023-03-01T12:11:22;93877.28;;;2.61;82.23
53522;BME280;39398;48.382;9.802;2023-03-01T12:16:40;93869.09;;;2.56;82.44
53522;BME280;39398;48.382;9.802;2023-03-01T12:22:06;93860.22;;;2.76;84.91
53522;BME280;39398;48.382;9.802;2023-03-01T12:27:25;93845.69;;;2.09;86.15
53522;BME280;39398;48.382;9.802;2023-03-01T12:32:39;93836.25;;;2.91;87.93
53522;BME280;39398;48.382;9.802;2023-03-01T12:37:54;93830.41;;;2.33;84.87
53522;BME280;39398;48.382;9.802;2023-03-01T12:43:08;93822.50;;;2.71;88.99
53522;BME280;39398;48.382;9.802;2023-03-01T12:48:26;93804.19;;;1.98;88.45
53522;BME280;39398;48.382;9.802;2023-03-01T12:53:40;93808.88;;;2.59;85.85
53522;BME280;39398;48.382;9.802;2023-03-01T12:58:51;93810.38;;;2.34;87.34
53522;BME280;39398;48.382;9.802;2023-03-01T13:04:13;93802.25;;;2.09;86.66
53522;BME280;39398;48.382;9.802;2023-03-01T13:09:21;93796.25;;;2.54;88.89
53522;BME280;39398;48.382;9.802;2023-03-01T13:14:37;93794.75;;;3.15;79.20
53522;BME280;39398;48.382;9.802;2023-03-01T13:19:56;93795.19;;;3.46;78.28
53522;BME280;39398;48.382;9.802;2023-03-01T13:25:10;93802.88;;;3.12;81.01
53522;BME280;39398;48.382;9.802;2023-03-01T13:30:47;93804.88;;;2.83;83.91
53522;BME280;39398;48.382;9.802;2023-03-01T13:35:49;93796.09;;;2.84;85.07
53522;BME280;39398;48.382;9.802;2023-03-01T13:40:58;93799.34;;;2.68;85.04
53522;BME280;39398;48.382;9.802;2023-03-01T13:46:07;93802.19;;;3.28;82.25
53522;BME280;39398;48.382;9.802;2023-03-01T13:51:11;93819.25;;;3.40;81.78
53522;BME280;39398;48.382;9.802;2023-03-01T13:56:15;93816.91;;;3.73;80.74
53522;BME280;39398;48.382;9.802;2023-03-01T14:01:29;93818.50;;;3.92;80.37
53522;BME280;39398;48.382;9.802;2023-03-01T14:06:32;93814.25;;;3.91;77.24
53522;BME280;39398;48.382;9.802;2023-03-01T14:11:52;93812.41;;;3.39;80.35
53522;BME280;39398;48.382;9.802;2023-03-01T14:17:08;93816.13;;;3.37;81.53
53522;BME280;39398;48.382;9.802;2023-03-01T14:22:18;93821.22;;;3.20;80.69
53522;BME280;39398;48.382;9.802;2023-03-01T14:27:23;93831.09;;;3.70;78.30
53522;BME280;39398;48.382;9.802;2023-03-01T14:32:30;93825.47;;;3.39;80.34
53522;BME280;39398;48.382;9.802;2023-03-01T14:37:34;93827.69;;;3.52;77.40
53522;BME280;39398;48.382;9.802;2023-03-01T14:42:36;93809.34;;;3.88;75.29
53522;BME280;39398;48.382;9.802;2023-03-01T14:47:39;93815.03;;;3.83;76.85
53522;BME280;39398;48.382;9.802;2023-03-01T14:52:46;93813.53;;;4.07;74.36
53522;BME280;39398;48.382;9.802;2023-03-01T14:57:51;93808.41;;;3.97;72.78
53522;BME280;39398;48.382;9.802;2023-03-01T15:02:56;93808.28;;;4.33;73.14
53522;BME280;39398;48.382;9.802;2023-03-01T15:08:00;93791.31;;;4.03;76.91
53522;BME280;39398;48.382;9.802;2023-03-01T15:13:12;93773.28;;;3.39;81.03
53522;BME280;39398;48.382;9.802;2023-03-01T15:18:17;93775.31;;;3.54;77.04
53522;BME280;39398;48.382;9.802;2023-03-01T15:23:22;93754.16;;;3.13;81.43
53522;BME280;39398;48.382;9.802;2023-03-01T15:28:28;93759.00;;;3.25;80.94
53522;BME280;39398;48.382;9.802;2023-03-01T15:33:34;93756.25;;;2.91;82.07
53522;BME280;39398;48.382;9.802;2023-03-01T15:38:49;93743.56;;;2.96;81.79
53522;BME280;39398;48.382;9.802;2023-03-01T15:43:52;93758.53;;;3.30;78.71
53522;BME280;39398;48.382;9.802;2023-03-01T15:48:56;93748.50;;;3.43;77.77
53522;BME280;39398;48.382;9.802;2023-03-01T15:54:02;93761.25;;;3.72;78.88
53522;BME280;39398;48.382;9.802;2023-03-01T15:59:04;93759.56;;;3.63;76.79
53522;BME280;39398;48.382;9.802;2023-03-01T16:04:08;93767.25;;;3.65;76.58
53522;BME280;39398;48.382;9.802;2023-03-01T16:09:10;93760.34;;;3.56;78.22
53522;BME280;39398;48.382;9.802;2023-03-01T16:14:12;93755.03;;;3.65;75.62
53522;BME280;39398;48.382;9.802;2023-03-01T16:19:15;93758.50;;;3.48;78.22
53522;BME280;39398;48.382;9.802;2023-03-01T16:24:17;93768.88;;;3.66;75.82
53522;BME280;39398;48.382;9.802;2023-03-01T16:29:18;93775.53;;;3.60;77.39
53522;BME280;39398;48.382;9.802;2023-03-01T16:34:21;93778.91;;;3.53;76.07
53522;BME280;39398;48.382;9.802;2023-03-01T16:39:23;93790.69;;;3.57;75.92
53522;BME280;39398;48.382;9.802;2023-03-01T16:44:24;93793.25;;;3.48;76.35
53522;BME280;39398;48.382;9.802;2023-03-01T16:49:27;93794.97;;;3.40;75.40
53522;BME280;39398;48.382;9.802;2023-03-01T16:54:29;93804.88;;;3.36;75.78
53522;BME280;39398;48.382;9.802;2023-03-01T16:59:30;93804.34;;;3.50;76.35
53522;BME280;39398;48.382;9.802;2023-03-01T17:04:33;93812.47;;;3.47;77.06
53522;BME280;39398;48.382;9.802;2023-03-01T17:09:35;93810.91;;;3.37;77.65
53522;BME280;39398;48.382;9.802;2023-03-01T17:14:37;93822.84;;;3.21;79.23
53522;BME280;39398;48.382;9.802;2023-03-01T17:19:40;93813.91;;;3.42;78.12
53522;BME280;39398;48.382;9.802;2023-03-01T17:24:42;93815.84;;;3.22;79.17
53522;BME280;39398;48.382;9.802;2023-03-01T17:29:44;93819.59;;;3.19;79.15
53522;BME280;39398;48.382;9.802;2023-03-01T17:34:47;93825.91;;;2.81;80.74
53522;BME280;39398;48.382;9.802;2023-03-01T17:39:49;93825.34;;;2.77;82.29
53522;BME280;39398;48.382;9.802;2023-03-01T17:44:50;93833.50;;;2.92;81.69
53522;BME280;39398;48.382;9.802;2023-03-01T17:49:53;93836.97;;;2.83;82.06
53522;BME280;39398;48.382;9.802;2023-03-01T17:54:55;93844.34;;;2.70;83.96
53522;BME280;39398;48.382;9.802;2023-03-01T17:59:57;93837.22;;;2.90;82.43
53522;BME280;39398;48.382;9.802;2023-03-01T18:04:59;93841.38;;;2.55;85.11
53522;BME280;39398;48.382;9.802;2023-03-01T18:10:02;93833.94;;;2.88;83.36
53522;BME280;39398;48.382;9.802;2023-03-01T18:15:04;93829.31;;;2.82;84.63
53522;BME280;39398;48.382;9.802;2023-03-01T18:20:08;93830.94;;;2.83;84.24
53522;BME280;39398;48.382;9.802;2023-03-01T18:25:10;93821.63;;;2.80;84.62
53522;BME280;39398;48.382;9.802;2023-03-01T18:30:13;93821.03;;;2.68;84.37
53522;BME280;39398;48.382;9.802;2023-03-01T18:35:16;93818.47;;;2.59;84.98
53522;BME280;39398;48.382;9.802;2023-03-01T18:40:18;93819.16;;;2.61;86.38
53522;BME280;39398;48.382;9.802;2023-03-01T18:45:19;93815.75;;;2.78;84.61
53522;BME280;39398;48.382;9.802;2023-03-01T18:50:22;93820.75;;;2.71;85.81
53522;BME280;39398;48.382;9.802;2023-03-01T18:55:24;93818.94;;;2.72;86.47
53522;BME280;39398;48.382;9.802;2023-03-01T19:00:26;93809.69;;;2.60;87.29
53522;BME280;39398;48.382;9.802;2023-03-01T19:05:29;93812.97;;;2.34;88.79
53522;BME280;39398;48.382;9.802;2023-03-01T19:10:30;93807.66;;;2.81;85.98
53522;BME280;39398;48.382;9.802;2023-03-01T19:15:32;93811.13;;;2.72;87.79
53522;BME280;39398;48.382;9.802;2023-03-01T19:20:35;93803.72;;;2.22;90.89
53522;BME280;39398;48.382;9.802;2023-03-01T19:25:39;93799.03;;;2.25;89.82
53522;BME280;39398;48.382;9.802;2023-03-01T19:30:40;93788.59;;;2.25;90.24
53522;BME280;39398;48.382;9.802;2023-03-01T19:35:43;93784.50;;;2.23;90.99
53522;BME280;39398;48.382;9.802;2023-03-01T19:40:45;93778.81;;;2.09;91.20
53522;BME280;39398;48.382;9.802;2023-03-01T19:45:49;93784.84;;;2.10;91.36
53522;BME280;39398;48.382;9.802;2023-03-01T19:50:53;93774.28;;;1.74;93.83
53522;BME280;39398;48.382;9.802;2023-03-01T19:55:57;93770.59;;;1.77;94.77
53522;BME280;39398;48.382;9.802;2023-03-01T20:00:59;93770.22;;;1.62;95.80
53522;BME280;39398;48.382;9.802;2023-03-01T20:06:08;93769.00;;;1.56;96.22
53522;BME280;39398;48.382;9.802;2023-03-01T20:11:12;93765.81;;;1.62;94.94
53522;BME280;39398;48.382;9.802;2023-03-01T20:16:15;93753.66;;;1.63;94.32
53522;BME280;39398;48.382;9.802;2023-03-01T20:21:19;93763.03;;;1.83;94.04
53522;BME280;39398;48.382;9.802;2023-03-01T20:26:25;93762.47;;;1.33;96.55
53522;BME280;39398;48.382;9.802;2023-03-01T20:31:27;93766.94;;;1.60;95.04
53522;BME280;39398;48.382;9.802;2023-03-01T20:36:30;93772.34;;;1.20;97.73
53522;BME280;39398;48.382;9.802;2023-03-01T20:41:32;93771.09;;;1.33;97.29
53522;BME280;39398;48.382;9.802;2023-03-01T20:46:34;93763.47;;;1.03;99.15
53522;BME280;39398;48.382;9.802;2023-03-01T20:51:38;93770.84;;;0.98;99.80
53522;BME280;39398;48.382;9.802;2023-03-01T20:56:39;93763.31;;;1.04;100.00
53522;BME280;39398;48.382;9.802;2023-03-01T21:01:41;93763.88;;;0.79;100.00
53522;BME280;39398;48.382;9.802;2023-03-01T21:06:44;93771.53;;;0.80;100.00
53522;BME280;39398;48.382;9.802;2023-03-01T21:11:48;93766.19;;;0.72;100.00
53522;BME280;39398;48.382;9.802;2023-03-01T21:16:49;93761.44;;;0.67;100.00
53522;BME280;39398;48.382;9.802;2023-03-01T21:21:52;93774.97;;;0.81;100.00
53522;BME280;39398;48.382;9.802;2023-03-01T21:26:54;93767.00;;;0.92;100.00
53522;BME280;39398;48.382;9.802;2023-03-01T21:31:55;93763.16;;;0.57;100.00
53522;BME280;39398;48.382;9.802;2023-03-01T21:36:59;93760.47;;;0.68;100.00
53522;BME280;39398;48.382;9.802;2023-03-01T21:42:02;93770.03;;;1.07;100.00
53522;BME280;39398;48.382;9.802;2023-03-01T21:47:04;93764.56;;;1.10;100.00
53522;BME280;39398;48.382;9.802;2023-03-01T21:52:07;93760.47;;;0.88;100.00
53522;BME280;39398;48.382;9.802;2023-03-01T21:57:09;93755.41;;;0.77;100.00
53522;BME280;39398;48.382;9.802;2023-03-01T22:02:10;93758.38;;;1.11;100.00
53522;BME280;39398;48.382;9.802;2023-03-01T22:07:13;93753.09;;;0.93;100.00
53522;BME280;39398;48.382;9.802;2023-03-01T22:12:15;93751.56;;;1.00;100.00
53522;BME280;39398;48.382;9.802;2023-03-01T22:17:17;93749.63;;;0.73;100.00
53522;BME280;39398;48.382;9.802;2023-03-01T22:22:19;93745.00;;;1.06;100.00
53522;BME280;39398;48.382;9.802;2023-03-01T22:27:21;93726.25;;;0.92;100.00
53522;BME280;39398;48.382;9.802;2023-03-01T22:32:22;93730.63;;;1.02;100.00
53522;BME280;39398;48.382;9.802;2023-03-01T22:37:26;93713.84;;;0.86;100.00
53522;BME280;39398;48.382;9.802;2023-03-01T22:42:27;93726.81;;;0.96;100.00
53522;BME280;39398;48.382;9.802;2023-03-01T22:47:29;93733.94;;;0.84;100.00
53522;BME280;39398;48.382;9.802;2023-03-01T22:52:32;93730.38;;;0.66;100.00
53522;BME280;39398;48.382;9.802;2023-03-01T22:57:33;93722.72;;;0.74;100.00
53522;BME280;39398;48.382;9.802;2023-03-01T23:02:35;93727.06;;;0.54;100.00
53522;BME280;39398;48.382;9.802;2023-03-01T23:07:38;93730.09;;;0.69;100.00
53522;BME280;39398;48.382;9.802;2023-03-01T23:12:39;93716.13;;;0.60;100.00
53522;BME280;39398;48.382;9.802;2023-03-01T23:17:41;93723.00;;;0.61;100.00
53522;BME280;39398;48.382;9.802;2023-03-01T23:22:44;93712.19;;;0.56;100.00
53522;BME280;39398;48.382;9.802;2023-03-01T23:27:45;93716.03;;;0.62;100.00
53522;BME280;39398;48.382;9.802;2023-03-01T23:32:47;93709.84;;;0.63;100.00
53522;BME280;39398;48.382;9.802;2023-03-01T23:37:50;93701.41;;;0.61;100.00
53522;BME280;39398;48.382;9.802;2023-03-01T23:42:51;93702.88;;;0.54;100.00
53522;BME280;39398;48.382;9.802;2023-03-01T23:47:53;93695.34;;;0.51;100.00
53522;BME280;39398;48.382;9.802;2023-03-01T23:52:56;93695.63;;;0.57;100.00
53522;BME280;39398;48.382;9.802;2023-03-01T23:57:58;93700.69;;;0.59;100.00
